createdAt,value
2023-05-02T00:00:58.505Z,101495.70
2023-05-02T00:03:25.464Z,101494.58
2023-05-02T00:05:52.350Z,101496.35
2023-05-02T00:08:19.226Z,101499.14
2023-05-02T00:10:46.175Z,101502.94
2023-05-02T00:13:13.111Z,101505.34
2023-05-02T00:15:40.106Z,101506.09
2023-05-02T00:18:07.356Z,101509.14
2023-05-02T00:20:34.484Z,101504.64
2023-05-02T00:25:21.094Z,101504.20
2023-05-02T00:27:50.466Z,101506.88
2023-05-02T00:30:17.925Z,101507.52
2023-05-02T00:32:45.527Z,101505.17
2023-05-02T00:35:12.562Z,101509.92
2023-05-02T00:37:39.816Z,101512.56
2023-05-02T00:40:07.550Z,101514.85
2023-05-02T00:42:35.690Z,101511.22
2023-05-02T00:45:06.584Z,101516.58
2023-05-02T00:47:34.599Z,101520.52
2023-05-02T00:50:02.363Z,101518.75
2023-05-02T00:52:30.982Z,101521.13
2023-05-02T00:54:57.890Z,101520.05
2023-05-02T00:57:24.969Z,101521.66
2023-05-02T00:59:51.792Z,101523.77
2023-05-02T01:02:41.982Z,101526.02
2023-05-02T01:05:19.636Z,101531.37
2023-05-02T01:08:21.851Z,101525.55
2023-05-02T01:11:16.544Z,101531.02
2023-05-02T01:13:45.214Z,101534.05
2023-05-02T01:16:12.764Z,101536.30
2023-05-02T01:18:41.518Z,101540.31
2023-05-02T01:21:09.519Z,101545.58
2023-05-02T01:24:17.625Z,101547.89
2023-05-02T01:27:14.473Z,101553.30
2023-05-02T01:29:41.973Z,101552.23
2023-05-02T01:32:09.181Z,101555.44
2023-05-02T01:34:38.684Z,101553.77
2023-05-02T01:37:05.573Z,101553.86
2023-05-02T01:39:32.435Z,101552.11
2023-05-02T01:41:59.464Z,101554.20
2023-05-02T01:44:26.428Z,101557.03
2023-05-02T01:46:53.992Z,101558.66
2023-05-02T01:49:21.141Z,101561.41
2023-05-02T01:51:49.835Z,101562.17
2023-05-02T01:54:17.278Z,101565.84
2023-05-02T01:56:45.160Z,101562.61
2023-05-02T01:59:14.236Z,101567.52
2023-05-02T02:01:43.081Z,101573.93
2023-05-02T02:04:12.586Z,101578.95
2023-05-02T02:06:40.346Z,101576.34
2023-05-02T02:09:08.230Z,101584.30
2023-05-02T02:11:37.319Z,101586.73
2023-05-02T02:14:07.608Z,101587.41
2023-05-02T02:16:37.690Z,101589.33
2023-05-02T02:19:06.864Z,101591.65
2023-05-02T02:21:34.752Z,101594.48
2023-05-02T02:24:02.624Z,101600.56
2023-05-02T02:26:29.850Z,101608.44
2023-05-02T02:28:56.735Z,101610.36
2023-05-02T02:31:25.499Z,101621.08
2023-05-02T02:33:52.404Z,101627.48
2023-05-02T02:36:43.545Z,101626.08
2023-05-02T02:39:39.286Z,101626.09
2023-05-02T02:42:25.568Z,101628.90
2023-05-02T02:44:56.152Z,101632.75
2023-05-02T02:47:26.272Z,101638.63
2023-05-02T02:50:31.560Z,101641.23
2023-05-02T02:53:38.100Z,101647.71
2023-05-02T02:56:06.476Z,101652.71
2023-05-02T02:58:48.295Z,101656.97
2023-05-02T03:01:17.560Z,101654.88
2023-05-02T03:03:44.629Z,101659.73
2023-05-02T03:06:11.578Z,101663.63
2023-05-02T03:08:43.097Z,101670.90
2023-05-02T03:11:12.509Z,101668.91
2023-05-02T03:13:39.299Z,101675.90
2023-05-02T03:16:24.765Z,101678.20
2023-05-02T03:18:51.795Z,101680.23
2023-05-02T03:21:18.728Z,101677.52
2023-05-02T03:23:46.287Z,101680.20
2023-05-02T03:26:13.258Z,101687.10
2023-05-02T03:28:41.614Z,101687.77
2023-05-02T03:31:09.038Z,101690.34
2023-05-02T03:33:36.399Z,101696.13
2023-05-02T03:36:03.462Z,101694.30
2023-05-02T03:38:30.797Z,101695.66
2023-05-02T03:40:58.781Z,101704.02
2023-05-02T03:43:25.829Z,101707.29
2023-05-02T03:45:53.090Z,101706.57
2023-05-02T03:48:20.488Z,101713.80
2023-05-02T03:50:48.526Z,101714.46
2023-05-02T03:53:15.850Z,101714.30
2023-05-02T03:55:46.823Z,101720.71
2023-05-02T03:58:17.039Z,101719.08
2023-05-02T04:00:44.773Z,101724.14
2023-05-02T04:03:12.011Z,101729.71
2023-05-02T04:05:42.275Z,101727.95
2023-05-02T04:08:10.731Z,101732.84
2023-05-02T04:10:37.869Z,101734.71
2023-05-02T04:13:07.833Z,101736.77
2023-05-02T04:15:35.920Z,101733.02
2023-05-02T04:18:03.297Z,101738.08
2023-05-02T04:20:31.278Z,101745.14
2023-05-02T04:22:58.281Z,101748.27
2023-05-02T04:25:26.992Z,101753.47
2023-05-02T04:27:56.105Z,101757.80
2023-05-02T04:30:24.751Z,101762.27
2023-05-02T04:33:00.554Z,101766.55
2023-05-02T04:35:31.431Z,101769.44
2023-05-02T04:37:58.291Z,101772.96
2023-05-02T04:40:26.394Z,101775.27
2023-05-02T04:43:00.511Z,101781.52
2023-05-02T04:45:36.315Z,101781.20
2023-05-02T04:48:05.746Z,101783.30
2023-05-02T04:50:33.145Z,101784.98
2023-05-02T04:53:00.969Z,101787.70
2023-05-02T04:55:28.748Z,101790.09
2023-05-02T04:57:55.581Z,101793.15
2023-05-02T05:00:23.233Z,101794.90
2023-05-02T05:02:50.187Z,101799.65
2023-05-02T05:05:17.230Z,101801.15
2023-05-02T05:07:45.774Z,101802.69
2023-05-02T05:10:13.381Z,101803.91
2023-05-02T05:12:44.224Z,101806.02
2023-05-02T05:15:11.702Z,101814.55
2023-05-02T05:17:40.160Z,101812.61
2023-05-02T05:20:11.160Z,101811.25
2023-05-02T05:22:40.964Z,101810.20
2023-05-02T05:25:09.088Z,101810.88
2023-05-02T05:27:37.127Z,101815.02
2023-05-02T05:30:05.709Z,101813.79
2023-05-02T05:32:34.027Z,101814.31
2023-05-02T05:35:01.972Z,101815.11
2023-05-02T05:37:30.009Z,101813.90
2023-05-02T05:39:59.487Z,101814.18
2023-05-02T05:42:27.599Z,101811.92
2023-05-02T05:44:59.259Z,101808.83
2023-05-02T05:47:27.819Z,101808.36
2023-05-02T05:49:55.758Z,101811.42
2023-05-02T05:52:27.407Z,101814.02
2023-05-02T05:54:58.294Z,101814.06
2023-05-02T05:57:26.951Z,101810.61
2023-05-02T05:59:57.201Z,101810.11
2023-05-02T06:02:24.468Z,101808.91
2023-05-02T06:04:51.380Z,101812.34
2023-05-02T06:07:21.205Z,101809.46
2023-05-02T06:09:48.057Z,101808.67
2023-05-02T06:12:16.350Z,101814.02
2023-05-02T06:14:43.598Z,101812.02
2023-05-02T06:17:10.997Z,101811.22
2023-05-02T06:19:37.781Z,101808.21
2023-05-02T06:22:06.900Z,101812.42
2023-05-02T06:24:34.195Z,101810.88
2023-05-02T06:27:02.096Z,101808.30
2023-05-02T06:29:29.287Z,101805.16
2023-05-02T06:31:56.550Z,101808.54
2023-05-02T06:34:23.665Z,101812.88
2023-05-02T06:36:55.960Z,101813.88
2023-05-02T06:39:22.901Z,101816.27
2023-05-02T06:41:49.959Z,101815.85
2023-05-02T06:44:18.520Z,101817.00
2023-05-02T06:46:45.461Z,101819.67
2023-05-02T06:49:12.291Z,101818.98
2023-05-02T06:51:39.380Z,101820.16
2023-05-02T06:54:06.570Z,101824.73
2023-05-02T06:56:33.665Z,101817.23
2023-05-02T06:59:00.751Z,101819.37
2023-05-02T07:01:27.797Z,101816.04
2023-05-02T07:03:54.813Z,101814.86
2023-05-02T07:06:22.133Z,101819.63
2023-05-02T07:08:56.118Z,101818.07
2023-05-02T07:11:43.334Z,101815.70
2023-05-02T07:14:10.295Z,101817.80
2023-05-02T07:16:37.438Z,101817.95
2023-05-02T07:19:06.189Z,101820.43
2023-05-02T07:21:34.698Z,101823.67
2023-05-02T07:24:01.754Z,101824.64
2023-05-02T07:26:29.128Z,101824.45
2023-05-02T07:28:56.053Z,101827.95
2023-05-02T07:31:25.493Z,101828.82
2023-05-02T07:33:52.392Z,101831.42
2023-05-02T07:36:19.381Z,101828.70
2023-05-02T07:38:46.452Z,101824.27
2023-05-02T07:41:14.188Z,101826.83
2023-05-02T07:43:41.417Z,101823.89
2023-05-02T07:46:08.382Z,101824.52
2023-05-02T07:48:36.038Z,101822.62
2023-05-02T07:51:09.895Z,101823.02
2023-05-02T07:53:36.943Z,101820.08
2023-05-02T07:56:05.845Z,101819.35
2023-05-02T07:58:36.907Z,101822.77
2023-05-02T08:01:04.110Z,101822.29
2023-05-02T08:03:31.777Z,101819.52
2023-05-02T08:05:58.982Z,101822.23
2023-05-02T08:08:25.894Z,101820.72
2023-05-02T08:10:52.763Z,101820.94
2023-05-02T08:13:19.984Z,101820.50
2023-05-02T08:15:46.868Z,101820.50
2023-05-02T08:18:13.893Z,101818.20
2023-05-02T08:20:40.899Z,101821.08
2023-05-02T08:23:07.770Z,101815.04
2023-05-02T08:25:34.631Z,101819.88
2023-05-02T08:28:01.573Z,101813.62
2023-05-02T08:30:28.838Z,101814.48
2023-05-02T08:32:56.435Z,101815.70
2023-05-02T08:35:23.488Z,101813.95
2023-05-02T08:37:50.352Z,101810.28
2023-05-02T08:40:27.108Z,101805.41
2023-05-02T08:43:01.964Z,101813.27
2023-05-02T08:45:29.814Z,101811.23
2023-05-02T08:47:57.189Z,101809.77
2023-05-02T08:50:24.238Z,101810.30
2023-05-02T08:52:51.158Z,101806.01
2023-05-02T08:55:18.328Z,101809.30
2023-05-02T08:57:45.473Z,101806.77
2023-05-02T09:00:12.951Z,101806.12
2023-05-02T09:03:30.892Z,101799.55
2023-05-02T09:06:18.730Z,101801.70
2023-05-02T09:08:54.110Z,101796.71
2023-05-02T09:11:27.364Z,101797.02
2023-05-02T09:13:58.378Z,101794.61
2023-05-02T09:16:26.531Z,101794.61
2023-05-02T09:18:54.987Z,101795.58
2023-05-02T09:21:24.964Z,101794.80
2023-05-02T09:36:22.427Z,101798.88
2023-05-02T09:38:50.847Z,101796.51
2023-05-02T09:41:22.325Z,101803.94
2023-05-02T09:43:59.334Z,101800.98
2023-05-02T09:46:26.532Z,101795.02
2023-05-02T09:48:57.667Z,101801.55
2023-05-02T09:51:25.393Z,101804.25
2023-05-02T09:53:52.583Z,101803.13
2023-05-02T09:56:19.661Z,101806.42
2023-05-02T09:58:46.927Z,101805.77
2023-05-02T10:01:19.875Z,101807.55
2023-05-02T10:03:48.357Z,101802.19
2023-05-02T10:06:16.684Z,101799.39
2023-05-02T10:08:45.917Z,101800.77
2023-05-02T10:11:13.224Z,101800.75
2023-05-02T10:13:42.949Z,101797.66
2023-05-02T10:16:12.392Z,101797.79
2023-05-02T10:18:53.221Z,101794.28
2023-05-02T10:21:27.808Z,101796.48
2023-05-02T10:23:55.173Z,101801.31
2023-05-02T10:26:23.659Z,101797.70
2023-05-02T10:28:51.741Z,101802.36
2023-05-02T10:31:19.065Z,101799.32
2023-05-02T10:33:47.571Z,101798.30
2023-05-02T10:36:14.632Z,101801.83
2023-05-02T10:38:43.799Z,101804.34
2023-05-02T10:41:13.906Z,101804.00
2023-05-02T10:43:40.897Z,101800.27
2023-05-02T10:46:30.315Z,101799.30
2023-05-02T10:49:07.557Z,101798.65
2023-05-02T10:51:35.568Z,101802.08
2023-05-02T10:54:18.352Z,101800.27
2023-05-02T10:57:04.615Z,101796.55
2023-05-02T10:59:34.032Z,101793.73
2023-05-02T11:02:02.287Z,101799.30
2023-05-02T11:05:03.422Z,101796.89
2023-05-02T11:07:31.821Z,101796.77
2023-05-02T11:10:17.276Z,101793.40
2023-05-02T11:12:51.044Z,101791.48
2023-05-02T11:15:30.227Z,101794.82
2023-05-02T11:18:01.656Z,101787.39
2023-05-02T11:20:28.940Z,101789.94
2023-05-02T11:22:57.179Z,101786.02
2023-05-02T11:25:31.131Z,101785.98
2023-05-02T11:27:58.151Z,101783.45
2023-05-02T11:30:44.508Z,101778.79
2023-05-02T11:33:12.327Z,101777.86
2023-05-02T11:35:39.982Z,101783.94
2023-05-02T11:38:12.156Z,101786.70
2023-05-02T11:40:39.390Z,101784.20
2023-05-02T11:43:17.980Z,101783.52
2023-05-02T11:45:44.961Z,101784.55
2023-05-02T11:48:13.670Z,101783.14
2023-05-02T11:50:50.432Z,101781.83
2023-05-02T11:53:25.689Z,101775.65
2023-05-02T11:56:00.587Z,101780.30
2023-05-02T11:58:33.785Z,101781.66
2023-05-02T12:01:14.697Z,101772.05
2023-05-02T12:03:42.287Z,101770.08
2023-05-02T12:06:14.254Z,101772.31
2023-05-02T12:08:49.601Z,101772.64
2023-05-02T12:11:17.286Z,101773.72
2023-05-02T12:13:50.129Z,101773.38
2023-05-02T12:16:18.139Z,101775.60
2023-05-02T12:18:45.429Z,101774.71
2023-05-02T12:21:12.806Z,101771.56
2023-05-02T12:23:40.107Z,101762.16
2023-05-02T12:26:19.584Z,101773.92
2023-05-02T12:28:51.446Z,101766.82
2023-05-02T12:31:18.643Z,101765.52
2023-05-02T12:33:48.430Z,101766.27
2023-05-02T12:36:15.518Z,101763.38
2023-05-02T12:38:52.617Z,101771.13
2023-05-02T12:42:24.171Z,101772.25
2023-05-02T12:44:51.715Z,101776.67
2023-05-02T12:47:19.616Z,101775.36
2023-05-02T12:49:53.452Z,101774.70
2023-05-02T12:52:21.985Z,101771.91
2023-05-02T12:54:48.924Z,101770.64
2023-05-02T12:57:23.347Z,101771.83
2023-05-02T12:59:53.676Z,101774.56
2023-05-02T13:02:21.161Z,101772.48
2023-05-02T13:04:48.132Z,101774.64
2023-05-02T13:07:15.105Z,101769.55
2023-05-02T13:09:42.066Z,101772.88
2023-05-02T13:12:10.086Z,101768.60
2023-05-02T13:14:37.906Z,101765.63
2023-05-02T13:17:05.215Z,101765.80
2023-05-02T13:19:32.149Z,101766.28
2023-05-02T13:21:59.047Z,101762.30
2023-05-02T13:24:25.842Z,101761.63
2023-05-02T13:26:52.937Z,101758.07
2023-05-02T13:29:19.806Z,101762.03
2023-05-02T13:31:47.201Z,101763.52
2023-05-02T13:34:14.212Z,101759.97
2023-05-02T13:36:45.476Z,101757.83
2023-05-02T13:39:13.386Z,101759.12
2023-05-02T13:41:40.951Z,101764.20
2023-05-02T13:44:08.925Z,101762.21
2023-05-02T13:46:38.053Z,101763.91
2023-05-02T13:49:07.092Z,101766.23
2023-05-02T13:51:35.881Z,101763.33
2023-05-02T13:54:02.924Z,101764.26
2023-05-02T13:56:29.773Z,101762.46
2023-05-02T13:58:57.689Z,101758.36
2023-05-02T14:01:27.681Z,101758.06
2023-05-02T14:03:54.681Z,101761.17
2023-05-02T14:06:21.979Z,101763.13
2023-05-02T14:08:50.783Z,101765.36
2023-05-02T14:11:17.696Z,101764.94
2023-05-02T14:13:44.670Z,101767.79
2023-05-02T14:16:11.516Z,101770.71
2023-05-02T14:18:38.506Z,101768.05
2023-05-02T14:21:05.718Z,101770.65
2023-05-02T14:23:33.175Z,101771.25
2023-05-02T14:26:01.033Z,101766.94
2023-05-02T14:28:28.334Z,101770.70
2023-05-02T14:30:55.246Z,101771.30
2023-05-02T14:33:22.442Z,101772.88
2023-05-02T14:35:49.317Z,101770.33
2023-05-02T14:38:16.282Z,101768.99
2023-05-02T14:40:43.156Z,101767.56
2023-05-02T14:43:12.947Z,101766.48
2023-05-02T14:45:40.402Z,101765.20
2023-05-02T14:48:07.836Z,101765.95
2023-05-02T14:50:37.226Z,101765.55
2023-05-02T14:53:04.223Z,101768.27
2023-05-02T14:55:40.999Z,101764.92
2023-05-02T14:58:09.824Z,101761.02
2023-05-02T15:00:38.325Z,101763.90
2023-05-02T15:03:07.959Z,101763.17
2023-05-02T15:05:36.227Z,101763.70
2023-05-02T15:08:03.529Z,101761.16
2023-05-02T15:10:30.705Z,101760.30
2023-05-02T15:12:57.610Z,101762.34
2023-05-02T15:15:24.824Z,101760.72
2023-05-02T15:17:52.421Z,101761.93
2023-05-02T15:20:19.615Z,101766.50
2023-05-02T15:22:46.440Z,101763.38
2023-05-02T15:25:13.213Z,101763.94
2023-05-02T15:27:41.347Z,101766.25
2023-05-02T15:30:08.478Z,101767.70
2023-05-02T15:32:35.871Z,101769.17
2023-05-02T15:35:07.292Z,101768.69
2023-05-02T15:37:34.514Z,101771.30
2023-05-02T15:40:03.327Z,101769.61
2023-05-02T15:42:31.115Z,101773.98
2023-05-02T15:44:57.968Z,101773.04
2023-05-02T15:47:25.647Z,101776.52
2023-05-02T15:49:54.445Z,101774.29
2023-05-02T15:52:21.350Z,101772.73
2023-05-02T15:54:50.976Z,101779.19
2023-05-02T15:57:19.224Z,101777.32
2023-05-02T15:59:46.269Z,101776.59
2023-05-02T16:02:13.474Z,101773.75
2023-05-02T16:04:42.806Z,101776.63
2023-05-02T16:07:10.589Z,101779.54
2023-05-02T16:09:39.091Z,101780.86
2023-05-02T16:12:06.835Z,101780.65
2023-05-02T16:14:35.501Z,101784.48
2023-05-02T16:17:03.601Z,101787.45
2023-05-02T16:19:31.035Z,101787.98
2023-05-02T16:21:57.851Z,101790.16
2023-05-02T16:24:25.332Z,101790.81
2023-05-02T16:26:53.066Z,101793.37
2023-05-02T16:29:20.292Z,101791.58
2023-05-02T16:31:47.447Z,101789.58
2023-05-02T16:34:15.015Z,101791.04
2023-05-02T16:36:42.360Z,101796.64
2023-05-02T16:39:10.472Z,101799.08
2023-05-02T16:41:37.560Z,101800.29
2023-05-02T16:44:04.647Z,101804.19
2023-05-02T16:46:32.412Z,101804.13
2023-05-02T16:48:59.906Z,101803.60
2023-05-02T16:51:28.616Z,101803.48
2023-05-02T16:53:59.411Z,101807.58
2023-05-02T16:56:26.307Z,101809.37
2023-05-02T16:58:55.558Z,101811.41
2023-05-02T17:01:34.794Z,101807.15
2023-05-02T17:04:04.699Z,101808.02
2023-05-02T17:06:31.881Z,101807.06
2023-05-02T17:08:58.913Z,101811.33
2023-05-02T17:11:26.560Z,101811.55
2023-05-02T17:13:54.556Z,101816.52
2023-05-02T17:16:21.920Z,101820.86
2023-05-02T17:18:49.059Z,101820.16
2023-05-02T17:21:16.353Z,101824.52
2023-05-02T17:23:43.185Z,101835.69
2023-05-02T17:26:14.924Z,101837.80
2023-05-02T17:28:44.969Z,101845.15
2023-05-02T17:31:25.888Z,101837.81
2023-05-02T17:33:53.400Z,101848.27
2023-05-02T17:36:23.358Z,101851.44
2023-05-02T17:38:52.204Z,101855.06
2023-05-02T17:41:21.054Z,101856.11
2023-05-02T17:43:51.265Z,101856.11
2023-05-02T17:46:21.964Z,101857.55
2023-05-02T17:48:53.206Z,101857.92
2023-05-02T17:51:20.390Z,101859.54
2023-05-02T17:53:49.810Z,101868.52
2023-05-02T17:56:18.444Z,101872.62
2023-05-02T17:58:47.406Z,101873.86
2023-05-02T18:01:18.120Z,101875.48
2023-05-02T18:03:49.231Z,101874.80
2023-05-02T18:06:24.627Z,101875.26
2023-05-02T18:08:51.668Z,101873.94
2023-05-02T18:11:19.471Z,101871.49
2023-05-02T18:13:51.260Z,101875.09
2023-05-02T18:16:18.901Z,101873.46
2023-05-02T18:18:51.106Z,101869.73
2023-05-02T18:21:22.408Z,101873.08
2023-05-02T18:23:49.950Z,101872.92
2023-05-02T18:26:17.390Z,101874.83
2023-05-02T18:28:52.544Z,101872.55
2023-05-02T18:31:20.260Z,101870.66
2023-05-02T18:33:47.272Z,101867.58
2023-05-02T18:36:19.926Z,101866.35
2023-05-02T18:38:47.151Z,101871.24
2023-05-02T18:41:14.306Z,101877.16
2023-05-02T18:43:44.226Z,101878.38
2023-05-02T18:46:11.763Z,101877.69
2023-05-02T18:48:40.074Z,101877.82
2023-05-02T18:51:07.710Z,101876.05
2023-05-02T18:53:34.991Z,101876.31
2023-05-02T18:56:02.648Z,101883.88
2023-05-02T18:58:31.674Z,101883.30
2023-05-02T19:00:58.614Z,101882.63
2023-05-02T19:03:26.294Z,101883.81
2023-05-02T19:05:57.980Z,101880.88
2023-05-02T19:08:27.743Z,101881.92
2023-05-02T19:10:55.592Z,101878.61
2023-05-02T19:13:22.651Z,101877.45
2023-05-02T19:15:50.075Z,101874.98
2023-05-02T19:18:21.205Z,101871.77
2023-05-02T19:20:51.156Z,101870.62
2023-05-02T19:23:23.649Z,101873.39
2023-05-02T19:25:50.597Z,101871.09
2023-05-02T19:28:17.935Z,101871.34
2023-05-02T19:30:45.598Z,101872.24
2023-05-02T19:33:13.055Z,101869.55
2023-05-02T19:35:40.259Z,101871.78
2023-05-02T19:38:08.899Z,101864.52
2023-05-02T19:40:36.429Z,101870.44
2023-05-02T19:45:45.016Z,101873.37
2023-05-02T19:48:14.174Z,101876.70
2023-05-02T19:50:42.146Z,101876.91
2023-05-02T19:53:09.040Z,101884.77
2023-05-02T19:55:35.857Z,101883.73
2023-05-02T19:58:04.015Z,101881.45
2023-05-02T20:00:30.955Z,101881.95
2023-05-02T20:02:59.268Z,101882.42
2023-05-02T20:05:26.249Z,101882.16
2023-05-02T20:07:53.306Z,101882.83
2023-05-02T20:10:20.327Z,101879.08
2023-05-02T20:12:47.376Z,101874.31
2023-05-02T20:15:16.413Z,101875.61
2023-05-02T20:17:43.587Z,101876.64
2023-05-02T20:20:11.264Z,101881.22
2023-05-02T20:22:41.904Z,101883.84
2023-05-02T20:25:11.298Z,101886.95
2023-05-02T20:27:39.127Z,101888.09
2023-05-02T20:30:08.385Z,101889.84
2023-05-02T20:32:36.307Z,101891.19
2023-05-02T20:35:03.288Z,101885.21
2023-05-02T20:37:31.849Z,101879.60
2023-05-02T20:39:58.952Z,101879.39
2023-05-02T20:42:26.322Z,101885.30
2023-05-02T20:44:57.161Z,101882.71
2023-05-02T20:47:25.131Z,101888.20
2023-05-02T20:49:54.037Z,101886.56
2023-05-02T20:52:21.511Z,101885.61
2023-05-02T20:54:48.891Z,101889.98
2023-05-02T20:57:15.821Z,101886.27
2023-05-02T20:59:43.324Z,101885.68
2023-05-02T21:02:10.496Z,101880.17
2023-05-02T21:04:37.926Z,101874.33
2023-05-02T21:07:05.364Z,101872.16
2023-05-02T21:09:33.316Z,101872.23
2023-05-02T21:12:01.304Z,101871.83
2023-05-02T21:14:28.449Z,101870.38
2023-05-02T21:16:55.389Z,101867.25
2023-05-02T21:19:22.238Z,101870.30
2023-05-02T21:21:49.339Z,101869.59
2023-05-02T21:24:16.135Z,101868.54
2023-05-02T21:26:42.987Z,101867.42
2023-05-02T21:29:10.376Z,101866.27
2023-05-02T21:31:39.708Z,101871.30
2023-05-02T21:34:06.884Z,101872.88
2023-05-02T21:36:34.416Z,101874.12
2023-05-02T21:39:01.238Z,101874.63
2023-05-02T21:41:28.279Z,101876.52
2023-05-02T21:43:55.266Z,101874.73
2023-05-02T21:46:22.213Z,101879.92
2023-05-02T21:48:49.560Z,101882.44
2023-05-02T21:51:16.492Z,101885.90
2023-05-02T21:53:43.447Z,101886.05
2023-05-02T21:56:10.226Z,101891.14
2023-05-02T21:58:37.199Z,101893.85
2023-05-02T22:01:04.233Z,101891.31
2023-05-02T22:03:33.246Z,101888.06
2023-05-02T22:06:05.272Z,101886.58
2023-05-02T22:08:33.093Z,101889.56
2023-05-02T22:10:59.966Z,101888.44
2023-05-02T22:13:28.465Z,101890.29
2023-05-02T22:15:55.454Z,101893.11
2023-05-02T22:18:22.381Z,101895.42
2023-05-02T22:20:49.302Z,101888.48
2023-05-02T22:23:16.650Z,101885.02
2023-05-02T22:25:44.332Z,101881.10
2023-05-02T22:28:11.674Z,101879.41
2023-05-02T22:30:44.951Z,101880.69
2023-05-02T22:33:14.731Z,101879.70
2023-05-02T22:35:41.749Z,101885.02
2023-05-02T22:38:08.858Z,101889.06
2023-05-02T22:40:35.834Z,101890.34
2023-05-02T22:43:03.735Z,101886.92
2023-05-02T22:45:30.622Z,101886.41
2023-05-02T22:47:57.700Z,101885.60
2023-05-02T22:50:25.705Z,101888.38
2023-05-02T22:52:56.652Z,101890.72
2023-05-02T22:55:23.686Z,101893.80
2023-05-02T22:57:50.982Z,101894.86
2023-05-02T23:00:17.827Z,101897.97
2023-05-02T23:02:45.125Z,101896.36
2023-05-02T23:05:12.095Z,101897.71
2023-05-02T23:07:39.161Z,101896.27
2023-05-02T23:10:07.032Z,101905.13
2023-05-02T23:12:33.923Z,101900.44
2023-05-02T23:15:00.937Z,101898.05
2023-05-02T23:17:28.060Z,101896.40
2023-05-02T23:19:55.411Z,101897.38
2023-05-02T23:22:22.265Z,101899.43
2023-05-02T23:24:49.215Z,101897.48
2023-05-02T23:27:16.203Z,101899.08
2023-05-02T23:29:43.183Z,101901.27
2023-05-02T23:32:10.435Z,101904.59
2023-05-02T23:34:37.273Z,101909.17
2023-05-02T23:37:05.982Z,101910.14
2023-05-02T23:39:34.253Z,101916.15
2023-05-02T23:42:03.037Z,101914.00
2023-05-02T23:44:30.790Z,101917.06
2023-05-02T23:46:58.964Z,101919.52
2023-05-02T23:49:26.184Z,101916.38
2023-05-02T23:51:53.431Z,101922.70
2023-05-02T23:54:20.234Z,101924.83
2023-05-02T23:56:47.114Z,101925.83
2023-05-02T23:59:14.510Z,101923.54
